sensor_id;sensor_type;location;lat;lon;timestamp;pressure;altitude;pressure_sealevel;temperature;humidity
38033;BME280;23841;48.524;1.342;2023-11-21T00:00:33;98972.00;;;14.45;64.81
38033;BME280;23841;48.524;1.342;2023-11-21T00:02:59;98979.09;;;14.46;65.35
38033;BME280;23841;48.524;1.342;2023-11-21T00:05:24;98972.84;;;14.46;65.10
38033;BME280;23841;48.524;1.342;2023-11-21T00:07:50;98965.72;;;14.46;65.14
38033;BME280;23841;48.524;1.342;2023-11-21T00:10:16;98967.50;;;14.46;65.06
38033;BME280;23841;48.524;1.342;2023-11-21T00:12:42;98972.94;;;14.44;64.97
38033;BME280;23841;48.524;1.342;2023-11-21T00:15:08;98969.31;;;14.45;64.91
38033;BME280;23841;48.524;1.342;2023-11-21T00:17:37;98971.13;;;14.45;65.04
38033;BME280;23841;48.524;1.342;2023-11-21T00:20:04;98968.41;;;14.46;65.23
38033;BME280;23841;48.524;1.342;2023-11-21T00:22:35;98973.81;;;14.45;65.11
38033;BME280;23841;48.524;1.342;2023-11-21T00:25:01;98976.47;;;14.45;65.05
38033;BME280;23841;48.524;1.342;2023-11-21T00:27:29;98973.88;;;14.43;65.00
38033;BME280;23841;48.524;1.342;2023-11-21T00:29:54;98968.53;;;14.43;65.00
38033;BME280;23841;48.524;1.342;2023-11-21T00:32:20;98970.31;;;14.43;65.00
38033;BME280;23841;48.524;1.342;2023-11-21T00:34:45;98971.25;;;14.42;64.87
38033;BME280;23841;48.524;1.342;2023-11-21T00:37:10;98965.91;;;14.42;64.94
38033;BME280;23841;48.524;1.342;2023-11-21T00:39:37;98973.00;;;14.43;65.00
38033;BME280;23841;48.524;1.342;2023-11-21T00:42:02;98975.72;;;14.41;64.91
38033;BME280;23841;48.524;1.342;2023-11-21T00:44:30;98979.25;;;14.42;64.91
38033;BME280;23841;48.524;1.342;2023-11-21T00:46:55;98980.22;;;14.41;64.80
38033;BME280;23841;48.524;1.342;2023-11-21T00:49:20;98981.06;;;14.41;64.72
38033;BME280;23841;48.524;1.342;2023-11-21T00:51:46;98990.03;;;14.40;64.78
38033;BME280;23841;48.524;1.342;2023-11-21T00:54:11;98981.16;;;14.40;64.84
38033;BME280;23841;48.524;1.342;2023-11-21T00:56:37;98976.72;;;14.39;64.54
38033;BME280;23841;48.524;1.342;2023-11-21T00:59:02;98977.63;;;14.39;64.70
38033;BME280;23841;48.524;1.342;2023-11-21T01:01:30;98982.06;;;14.39;64.62
38033;BME280;23841;48.524;1.342;2023-11-21T01:03:55;98976.72;;;14.39;64.79
38033;BME280;23841;48.524;1.342;2023-11-21T01:06:21;98971.38;;;14.39;64.72
38033;BME280;23841;48.524;1.342;2023-11-21T01:08:46;98980.28;;;14.39;64.82
38033;BME280;23841;48.524;1.342;2023-11-21T01:11:12;98975.88;;;14.38;64.48
38033;BME280;23841;48.524;1.342;2023-11-21T01:13:38;98983.94;;;14.37;64.76
38033;BME280;23841;48.524;1.342;2023-11-21T01:16:05;98974.19;;;14.36;64.72
38033;BME280;23841;48.524;1.342;2023-11-21T01:18:32;98983.88;;;14.38;64.64
38033;BME280;23841;48.524;1.342;2023-11-21T01:20:57;98969.63;;;14.38;64.83
38033;BME280;23841;48.524;1.342;2023-11-21T01:23:23;98974.97;;;14.38;64.76
38033;BME280;23841;48.524;1.342;2023-11-21T01:25:49;98977.66;;;14.38;64.65
38033;BME280;23841;48.524;1.342;2023-11-21T01:28:14;98978.63;;;14.37;64.75
38033;BME280;23841;48.524;1.342;2023-11-21T01:30:39;98981.28;;;14.37;64.83
38033;BME280;23841;48.524;1.342;2023-11-21T01:33:05;98988.41;;;14.36;64.73
38033;BME280;23841;48.524;1.342;2023-11-21T01:35:31;98980.31;;;14.38;64.86
38033;BME280;23841;48.524;1.342;2023-11-21T01:37:56;98982.13;;;14.37;64.61
38033;BME280;23841;48.524;1.342;2023-11-21T01:40:21;98986.63;;;14.37;64.86
38033;BME280;23841;48.524;1.342;2023-11-21T01:42:47;98996.34;;;14.38;64.83
38033;BME280;23841;48.524;1.342;2023-11-21T01:45:13;98994.66;;;14.37;64.77
38033;BME280;23841;48.524;1.342;2023-11-21T01:47:41;98997.31;;;14.37;64.70
38033;BME280;23841;48.524;1.342;2023-11-21T01:50:14;98996.34;;;14.38;64.57
38033;BME280;23841;48.524;1.342;2023-11-21T01:52:46;99001.69;;;14.38;64.87
38033;BME280;23841;48.524;1.342;2023-11-21T01:55:14;99009.72;;;14.38;64.73
38033;BME280;23841;48.524;1.342;2023-11-21T01:57:42;99008.84;;;14.37;64.63
38033;BME280;23841;48.524;1.342;2023-11-21T02:00:07;99010.69;;;14.37;64.73
38033;BME280;23841;48.524;1.342;2023-11-21T02:02:47;99004.38;;;14.38;64.98
38033;BME280;23841;48.524;1.342;2023-11-21T02:05:14;99007.94;;;14.38;64.72
38033;BME280;23841;48.524;1.342;2023-11-21T02:07:41;99013.28;;;14.38;65.07
38033;BME280;23841;48.524;1.342;2023-11-21T02:10:08;99001.69;;;14.38;64.96
38033;BME280;23841;48.524;1.342;2023-11-21T02:12:34;99003.44;;;14.39;64.91
38033;BME280;23841;48.524;1.342;2023-11-21T02:15:03;99007.03;;;14.38;64.76
38033;BME280;23841;48.524;1.342;2023-11-21T02:17:35;99000.84;;;14.37;64.84
38033;BME280;23841;48.524;1.342;2023-11-21T02:20:00;99002.59;;;14.38;65.05
38033;BME280;23841;48.524;1.342;2023-11-21T02:22:31;99002.59;;;14.38;64.82
38033;BME280;23841;48.524;1.342;2023-11-21T02:25:01;99010.59;;;14.38;64.86
38033;BME280;23841;48.524;1.342;2023-11-21T02:27:26;99014.13;;;14.39;64.82
38033;BME280;23841;48.524;1.342;2023-11-21T02:29:52;99015.03;;;14.39;64.75
38033;BME280;23841;48.524;1.342;2023-11-21T02:32:17;99012.38;;;14.38;64.85
38033;BME280;23841;48.524;1.342;2023-11-21T02:34:44;99017.69;;;14.39;64.67
38033;BME280;23841;48.524;1.342;2023-11-21T02:37:10;99007.03;;;14.38;64.69
38033;BME280;23841;48.524;1.342;2023-11-21T02:39:35;99015.06;;;14.38;64.75
38033;BME280;23841;48.524;1.342;2023-11-21T02:42:00;99019.47;;;14.39;64.92
38033;BME280;23841;48.524;1.342;2023-11-21T02:44:26;99015.03;;;14.39;65.01
38033;BME280;23841;48.524;1.342;2023-11-21T02:46:51;99014.13;;;14.39;65.05
38033;BME280;23841;48.524;1.342;2023-11-21T02:49:17;99016.03;;;14.37;65.08
38033;BME280;23841;48.524;1.342;2023-11-21T02:51:42;99009.72;;;14.38;65.13
38033;BME280;23841;48.524;1.342;2023-11-21T02:54:08;99006.19;;;14.37;64.95
38033;BME280;23841;48.524;1.342;2023-11-21T02:56:34;99016.81;;;14.39;65.12
38033;BME280;23841;48.524;1.342;2023-11-21T02:59:00;99006.13;;;14.39;65.08
38033;BME280;23841;48.524;1.342;2023-11-21T03:01:26;99009.72;;;14.38;64.99
38033;BME280;23841;48.524;1.342;2023-11-21T03:03:53;99011.53;;;14.37;65.10
38033;BME280;23841;48.524;1.342;2023-11-21T03:06:21;99013.28;;;14.38;64.87
38033;BME280;23841;48.524;1.342;2023-11-21T03:08:47;99008.78;;;14.39;65.04
38033;BME280;23841;48.524;1.342;2023-11-21T03:11:13;99007.94;;;14.38;65.10
38033;BME280;23841;48.524;1.342;2023-11-21T03:13:41;99010.59;;;14.38;64.83
38033;BME280;23841;48.524;1.342;2023-11-21T03:16:08;99014.22;;;14.37;64.93
38033;BME280;23841;48.524;1.342;2023-11-21T03:18:34;99021.28;;;14.38;64.82
38033;BME280;23841;48.524;1.342;2023-11-21T03:20:59;99015.94;;;14.38;65.06
38033;BME280;23841;48.524;1.342;2023-11-21T03:23:25;99019.47;;;14.39;65.14
38033;BME280;23841;48.524;1.342;2023-11-21T03:25:50;99012.38;;;14.38;65.13
38033;BME280;23841;48.524;1.342;2023-11-21T03:28:16;99015.06;;;14.38;65.13
38033;BME280;23841;48.524;1.342;2023-11-21T03:30:41;99017.72;;;14.38;65.08
38033;BME280;23841;48.524;1.342;2023-11-21T03:33:06;99010.69;;;14.37;65.14
38033;BME280;23841;48.524;1.342;2023-11-21T03:35:33;99022.22;;;14.37;64.91
38033;BME280;23841;48.524;1.342;2023-11-21T03:37:58;99016.94;;;14.36;64.95
38033;BME280;23841;48.524;1.342;2023-11-21T03:40:24;99015.13;;;14.36;65.04
38033;BME280;23841;48.524;1.342;2023-11-21T03:42:49;99017.81;;;14.36;64.93
38033;BME280;23841;48.524;1.342;2023-11-21T03:45:14;99016.03;;;14.37;65.15
38033;BME280;23841;48.524;1.342;2023-11-21T03:47:43;99020.47;;;14.36;64.98
38033;BME280;23841;48.524;1.342;2023-11-21T03:50:09;99022.22;;;14.37;64.99
38033;BME280;23841;48.524;1.342;2023-11-21T03:52:35;99024.97;;;14.36;65.13
38033;BME280;23841;48.524;1.342;2023-11-21T03:55:03;99024.03;;;14.37;65.01
38033;BME280;23841;48.524;1.342;2023-11-21T03:57:29;99029.38;;;14.37;65.21
38033;BME280;23841;48.524;1.342;2023-11-21T03:59:54;99033.91;;;14.34;65.19
38033;BME280;23841;48.524;1.342;2023-11-21T04:02:20;99038.31;;;14.36;64.98
38033;BME280;23841;48.524;1.342;2023-11-21T04:04:45;99030.38;;;14.34;65.03
38033;BME280;23841;48.524;1.342;2023-11-21T04:07:11;99032.97;;;14.36;65.00
38033;BME280;23841;48.524;1.342;2023-11-21T04:09:39;99040.13;;;14.35;65.01
38033;BME280;23841;48.524;1.342;2023-11-21T04:12:05;99042.81;;;14.35;64.90
38033;BME280;23841;48.524;1.342;2023-11-21T04:14:30;99041.06;;;14.34;65.05
38033;BME280;23841;48.524;1.342;2023-11-21T04:16:56;99044.59;;;14.34;65.19
38033;BME280;23841;48.524;1.342;2023-11-21T04:19:22;99046.41;;;14.34;64.96
38033;BME280;23841;48.524;1.342;2023-11-21T04:21:47;99046.47;;;14.32;64.95
38033;BME280;23841;48.524;1.342;2023-11-21T04:24:13;99052.66;;;14.33;65.21
38033;BME280;23841;48.524;1.342;2023-11-21T04:26:38;99052.66;;;14.33;65.06
38033;BME280;23841;48.524;1.342;2023-11-21T04:29:03;99049.22;;;14.31;65.15
38033;BME280;23841;48.524;1.342;2023-11-21T04:31:30;99056.34;;;14.30;65.15
38033;BME280;23841;48.524;1.342;2023-11-21T04:33:55;99064.34;;;14.30;65.10
38033;BME280;23841;48.524;1.342;2023-11-21T04:36:21;99064.34;;;14.30;64.92
38033;BME280;23841;48.524;1.342;2023-11-21T04:38:46;99059.06;;;14.29;65.10
38033;BME280;23841;48.524;1.342;2023-11-21T04:41:12;99066.22;;;14.28;64.96
38033;BME280;23841;48.524;1.342;2023-11-21T04:43:37;99072.50;;;14.27;65.12
38033;BME280;23841;48.524;1.342;2023-11-21T04:46:03;99066.22;;;14.28;65.02
38033;BME280;23841;48.524;1.342;2023-11-21T04:48:28;99070.69;;;14.28;65.13
38033;BME280;23841;48.524;1.342;2023-11-21T04:50:53;99074.25;;;14.28;64.83
38033;BME280;23841;48.524;1.342;2023-11-21T04:53:19;99075.16;;;14.27;65.00
38033;BME280;23841;48.524;1.342;2023-11-21T04:55:45;99080.50;;;14.27;65.08
38033;BME280;23841;48.524;1.342;2023-11-21T04:58:11;99079.72;;;14.25;65.04
38033;BME280;23841;48.524;1.342;2023-11-21T05:00:37;99082.38;;;14.25;65.03
38033;BME280;23841;48.524;1.342;2023-11-21T05:03:03;99088.59;;;14.26;65.11
38033;BME280;23841;48.524;1.342;2023-11-21T05:05:29;99094.00;;;14.24;65.06
38033;BME280;23841;48.524;1.342;2023-11-21T05:07:55;99096.66;;;14.24;64.99
38033;BME280;23841;48.524;1.342;2023-11-21T05:10:20;99092.25;;;14.23;64.99
38033;BME280;23841;48.524;1.342;2023-11-21T05:12:47;99097.66;;;14.22;65.05
38033;BME280;23841;48.524;1.342;2023-11-21T05:15:16;99101.25;;;14.21;65.21
38033;BME280;23841;48.524;1.342;2023-11-21T05:17:45;99098.66;;;14.19;65.00
38033;BME280;23841;48.524;1.342;2023-11-21T05:20:11;99099.56;;;14.18;65.16
38033;BME280;23841;48.524;1.342;2023-11-21T05:22:39;99098.66;;;14.19;65.00
38033;BME280;23841;48.524;1.342;2023-11-21T05:25:05;99104.88;;;14.20;65.10
38033;BME280;23841;48.524;1.342;2023-11-21T05:27:32;99100.53;;;14.17;65.06
38033;BME280;23841;48.524;1.342;2023-11-21T05:29:57;99108.59;;;14.15;64.92
38033;BME280;23841;48.524;1.342;2023-11-21T05:32:25;99108.63;;;14.14;65.14
38033;BME280;23841;48.524;1.342;2023-11-21T05:34:52;99113.19;;;14.12;65.01
38033;BME280;23841;48.524;1.342;2023-11-21T05:37:17;99112.25;;;14.13;65.04
38033;BME280;23841;48.524;1.342;2023-11-21T05:39:43;99113.19;;;14.12;64.97
38033;BME280;23841;48.524;1.342;2023-11-21T05:42:08;99110.56;;;14.10;65.18
38033;BME280;23841;48.524;1.342;2023-11-21T05:44:36;99113.31;;;14.09;65.08
38033;BME280;23841;48.524;1.342;2023-11-21T05:47:02;99119.50;;;14.09;65.02
38033;BME280;23841;48.524;1.342;2023-11-21T05:49:29;99120.44;;;14.08;65.23
38033;BME280;23841;48.524;1.342;2023-11-21T05:51:55;99117.75;;;14.08;64.97
38033;BME280;23841;48.524;1.342;2023-11-21T05:54:21;99119.63;;;14.06;65.00
38033;BME280;23841;48.524;1.342;2023-11-21T05:56:47;99123.22;;;14.05;64.99
38033;BME280;23841;48.524;1.342;2023-11-21T05:59:12;99129.56;;;14.03;64.92
38033;BME280;23841;48.524;1.342;2023-11-21T06:01:38;99124.28;;;14.01;64.97
38033;BME280;23841;48.524;1.342;2023-11-21T06:04:04;99133.19;;;14.02;65.07
38033;BME280;23841;48.524;1.342;2023-11-21T06:06:30;99129.63;;;14.01;65.02
38033;BME280;23841;48.524;1.342;2023-11-21T06:08:57;99117.25;;;13.98;65.04
38033;BME280;23841;48.524;1.342;2023-11-21T06:11:22;99113.72;;;13.98;64.83
38033;BME280;23841;48.524;1.342;2023-11-21T06:13:48;99122.59;;;13.98;65.10
38033;BME280;23841;48.524;1.342;2023-11-21T06:16:14;99119.97;;;13.97;64.97
38033;BME280;23841;48.524;1.342;2023-11-21T06:18:42;99130.59;;;13.98;65.12
38033;BME280;23841;48.524;1.342;2023-11-21T06:21:11;99132.41;;;13.98;64.97
38033;BME280;23841;48.524;1.342;2023-11-21T06:23:37;99138.63;;;13.98;64.90
38033;BME280;23841;48.524;1.342;2023-11-21T06:26:02;99135.16;;;13.96;65.00
38033;BME280;23841;48.524;1.342;2023-11-21T06:28:29;99142.25;;;13.97;64.94
38033;BME280;23841;48.524;1.342;2023-11-21T06:30:56;99143.09;;;13.98;65.09
38033;BME280;23841;48.524;1.342;2023-11-21T06:33:21;99136.00;;;13.97;65.10
38033;BME280;23841;48.524;1.342;2023-11-21T06:35:47;99136.91;;;13.97;65.21
38033;BME280;23841;48.524;1.342;2023-11-21T06:38:12;99144.91;;;13.97;65.17
38033;BME280;23841;48.524;1.342;2023-11-21T06:40:37;99143.09;;;13.98;65.10
38033;BME280;23841;48.524;1.342;2023-11-21T06:43:03;99147.56;;;13.97;65.13
38033;BME280;23841;48.524;1.342;2023-11-21T06:45:30;99153.84;;;13.96;65.23
38033;BME280;23841;48.524;1.342;2023-11-21T06:47:55;99152.09;;;13.95;65.13
38033;BME280;23841;48.524;1.342;2023-11-21T06:50:20;99153.97;;;13.93;65.14
38033;BME280;23841;48.524;1.342;2023-11-21T06:52:46;99157.50;;;13.94;65.10
38033;BME280;23841;48.524;1.342;2023-11-21T06:55:11;99153.97;;;13.93;65.13
38033;BME280;23841;48.524;1.342;2023-11-21T06:57:37;99172.72;;;13.92;65.22
38033;BME280;23841;48.524;1.342;2023-11-21T07:00:04;99177.22;;;13.90;65.04
38033;BME280;23841;48.524;1.342;2023-11-21T07:02:29;99175.47;;;13.89;65.26
38033;BME280;23841;48.524;1.342;2023-11-21T07:04:55;99174.63;;;13.88;65.22
38033;BME280;23841;48.524;1.342;2023-11-21T07:07:20;99185.28;;;13.88;65.31
38033;BME280;23841;48.524;1.342;2023-11-21T07:09:46;99198.72;;;13.87;65.20
38033;BME280;23841;48.524;1.342;2023-11-21T07:12:11;99190.75;;;13.85;65.15
38033;BME280;23841;48.524;1.342;2023-11-21T07:14:37;99204.09;;;13.85;65.34
38033;BME280;23841;48.524;1.342;2023-11-21T07:17:04;99197.94;;;13.83;65.24
38033;BME280;23841;48.524;1.342;2023-11-21T07:19:30;99197.06;;;13.82;65.23
38033;BME280;23841;48.524;1.342;2023-11-21T07:21:55;99205.16;;;13.81;65.40
38033;BME280;23841;48.524;1.342;2023-11-21T07:24:21;99206.91;;;13.80;65.42
38033;BME280;23841;48.524;1.342;2023-11-21T07:26:47;99208.72;;;13.80;65.44
38033;BME280;23841;48.524;1.342;2023-11-21T07:29:13;99223.00;;;13.79;65.45
38033;BME280;23841;48.524;1.342;2023-11-21T07:31:38;99218.63;;;13.78;65.40
38033;BME280;23841;48.524;1.342;2023-11-21T07:34:04;99225.72;;;13.77;65.42
38033;BME280;23841;48.524;1.342;2023-11-21T07:36:30;99228.47;;;13.76;65.60
38033;BME280;23841;48.524;1.342;2023-11-21T07:38:56;99235.56;;;13.77;65.57
38033;BME280;23841;48.524;1.342;2023-11-21T07:41:22;99234.72;;;13.75;65.60
38033;BME280;23841;48.524;1.342;2023-11-21T07:43:47;99239.13;;;13.76;65.49
38033;BME280;23841;48.524;1.342;2023-11-21T07:46:13;99242.72;;;13.75;65.56
38033;BME280;23841;48.524;1.342;2023-11-21T07:48:39;99242.72;;;13.75;65.56
38033;BME280;23841;48.524;1.342;2023-11-21T07:51:06;99239.25;;;13.73;65.54
38033;BME280;23841;48.524;1.342;2023-11-21T07:53:34;99244.66;;;13.71;65.66
38033;BME280;23841;48.524;1.342;2023-11-21T07:56:04;99240.16;;;13.72;65.74
38033;BME280;23841;48.524;1.342;2023-11-21T07:58:30;99249.09;;;13.71;65.80
38033;BME280;23841;48.524;1.342;2023-11-21T08:00:56;99253.56;;;13.70;65.80
38033;BME280;23841;48.524;1.342;2023-11-21T08:03:21;99256.25;;;13.70;65.92
38033;BME280;23841;48.524;1.342;2023-11-21T08:05:47;99260.72;;;13.70;65.83
38033;BME280;23841;48.524;1.342;2023-11-21T08:08:12;99256.38;;;13.67;66.07
38033;BME280;23841;48.524;1.342;2023-11-21T08:10:38;99262.56;;;13.68;65.86
38033;BME280;23841;48.524;1.342;2023-11-21T08:13:04;99269.75;;;13.65;65.90
38033;BME280;23841;48.524;1.342;2023-11-21T08:15:30;99271.47;;;13.66;65.95
38033;BME280;23841;48.524;1.342;2023-11-21T08:17:57;99267.09;;;13.65;65.93
38033;BME280;23841;48.524;1.342;2023-11-21T08:20:24;99274.16;;;13.66;66.18
38033;BME280;23841;48.524;1.342;2023-11-21T08:22:50;99271.59;;;13.63;66.29
38033;BME280;23841;48.524;1.342;2023-11-21T08:25:17;99271.59;;;13.63;66.31
38033;BME280;23841;48.524;1.342;2023-11-21T08:27:45;99275.19;;;13.62;66.22
38033;BME280;23841;48.524;1.342;2023-11-21T08:30:11;99274.31;;;13.62;66.51
38033;BME280;23841;48.524;1.342;2023-11-21T08:32:37;99284.13;;;13.61;66.60
38033;BME280;23841;48.524;1.342;2023-11-21T08:35:04;99271.72;;;13.60;66.37
38033;BME280;23841;48.524;1.342;2023-11-21T08:37:30;99280.56;;;13.61;66.55
38033;BME280;23841;48.524;1.342;2023-11-21T08:39:58;99282.38;;;13.60;66.54
38033;BME280;23841;48.524;1.342;2023-11-21T08:42:27;99289.47;;;13.61;66.64
38033;BME280;23841;48.524;1.342;2023-11-21T08:44:55;99287.72;;;13.60;66.78
38033;BME280;23841;48.524;1.342;2023-11-21T08:47:23;99293.91;;;13.61;66.80
38033;BME280;23841;48.524;1.342;2023-11-21T08:49:50;99295.78;;;13.59;67.00
38033;BME280;23841;48.524;1.342;2023-11-21T08:52:17;99298.50;;;13.57;66.96
38033;BME280;23841;48.524;1.342;2023-11-21T08:54:43;99294.94;;;13.57;67.11
38033;BME280;23841;48.524;1.342;2023-11-21T08:57:10;99306.53;;;13.57;67.29
38033;BME280;23841;48.524;1.342;2023-11-21T08:59:36;99299.44;;;13.56;67.21
38033;BME280;23841;48.524;1.342;2023-11-21T09:02:01;99301.25;;;13.56;67.38
38033;BME280;23841;48.524;1.342;2023-11-21T09:04:27;99305.69;;;13.55;67.42
38033;BME280;23841;48.524;1.342;2023-11-21T09:06:53;99309.31;;;13.54;67.62
38033;BME280;23841;48.524;1.342;2023-11-21T09:09:19;99314.66;;;13.53;67.74
38033;BME280;23841;48.524;1.342;2023-11-21T09:11:45;99315.59;;;13.52;67.72
38033;BME280;23841;48.524;1.342;2023-11-21T09:14:11;99325.34;;;13.53;67.82
38033;BME280;23841;48.524;1.342;2023-11-21T09:16:38;99330.72;;;13.51;68.16
38033;BME280;23841;48.524;1.342;2023-11-21T09:19:04;99337.81;;;13.52;68.06
38033;BME280;23841;48.524;1.342;2023-11-21T09:21:30;99345.81;;;13.52;67.97
38033;BME280;23841;48.524;1.342;2023-11-21T09:23:56;99339.69;;;13.50;68.15
38033;BME280;23841;48.524;1.342;2023-11-21T09:26:21;99337.88;;;13.51;68.08
38033;BME280;23841;48.524;1.342;2023-11-21T09:28:47;99344.19;;;13.48;68.50
38033;BME280;23841;48.524;1.342;2023-11-21T09:31:13;99348.59;;;13.49;68.49
38033;BME280;23841;48.524;1.342;2023-11-21T09:33:43;99345.94;;;13.49;68.39
38033;BME280;23841;48.524;1.342;2023-11-21T09:36:12;99351.28;;;13.49;68.58
38033;BME280;23841;48.524;1.342;2023-11-21T09:38:41;99357.53;;;13.48;68.71
38033;BME280;23841;48.524;1.342;2023-11-21T09:41:13;99363.72;;;13.48;68.71
38033;BME280;23841;48.524;1.342;2023-11-21T09:43:44;99378.00;;;13.47;68.57
38033;BME280;23841;48.524;1.342;2023-11-21T09:46:12;99377.13;;;13.47;69.02
38033;BME280;23841;48.524;1.342;2023-11-21T09:48:43;99374.50;;;13.45;69.01
38033;BME280;23841;48.524;1.342;2023-11-21T09:51:10;99393.13;;;13.47;69.07
38033;BME280;23841;48.524;1.342;2023-11-21T09:53:36;99391.41;;;13.46;69.04
38033;BME280;23841;48.524;1.342;2023-11-21T09:56:04;99393.22;;;13.44;69.38
38033;BME280;23841;48.524;1.342;2023-11-21T09:58:30;99391.53;;;13.41;69.44
38033;BME280;23841;48.524;1.342;2023-11-21T10:00:59;99402.19;;;13.41;69.37
38033;BME280;23841;48.524;1.342;2023-11-21T10:03:25;99403.16;;;13.40;69.48
38033;BME280;23841;48.524;1.342;2023-11-21T10:05:53;99404.00;;;13.41;69.74
38033;BME280;23841;48.524;1.342;2023-11-21T10:08:22;99418.22;;;13.41;69.74
38033;BME280;23841;48.524;1.342;2023-11-21T10:10:51;99420.03;;;13.41;69.75
38033;BME280;23841;48.524;1.342;2023-11-21T10:13:18;99414.69;;;13.41;69.86
38033;BME280;23841;48.524;1.342;2023-11-21T10:15:49;99420.03;;;13.41;69.99
38033;BME280;23841;48.524;1.342;2023-11-21T10:18:16;99431.56;;;13.41;70.03
38033;BME280;23841;48.524;1.342;2023-11-21T10:20:41;99429.78;;;13.42;70.03
38033;BME280;23841;48.524;1.342;2023-11-21T10:23:08;99424.44;;;13.42;70.29
38033;BME280;23841;48.524;1.342;2023-11-21T10:25:36;99424.44;;;13.42;70.07
38033;BME280;23841;48.524;1.342;2023-11-21T10:28:03;99428.03;;;13.41;70.24
38033;BME280;23841;48.524;1.342;2023-11-21T10:30:37;99423.59;;;13.40;70.23
38033;BME280;23841;48.524;1.342;2023-11-21T10:33:07;99427.22;;;13.37;70.40
38033;BME280;23841;48.524;1.342;2023-11-21T10:38:18;99425.47;;;13.38;70.53
38033;BME280;23841;48.524;1.342;2023-11-21T10:40:46;99431.66;;;13.38;70.55
38033;BME280;23841;48.524;1.342;2023-11-21T10:43:13;99429.91;;;13.37;70.67
38033;BME280;23841;48.524;1.342;2023-11-21T10:45:40;99437.97;;;13.36;70.56
38033;BME280;23841;48.524;1.342;2023-11-21T10:48:12;99436.13;;;13.38;70.45
38033;BME280;23841;48.524;1.342;2023-11-21T10:50:43;99432.63;;;13.36;70.72
38033;BME280;23841;48.524;1.342;2023-11-21T10:53:09;99436.16;;;13.35;70.77
38033;BME280;23841;48.524;1.342;2023-11-21T10:55:34;99439.78;;;13.34;70.87
38033;BME280;23841;48.524;1.342;2023-11-21T10:58:01;99437.13;;;13.34;71.10
38033;BME280;23841;48.524;1.342;2023-11-21T11:00:29;99440.69;;;13.32;70.88
38033;BME280;23841;48.524;1.342;2023-11-21T11:02:55;99439.78;;;13.34;71.05
38033;BME280;23841;48.524;1.342;2023-11-21T11:05:28;99435.34;;;13.32;70.84
38033;BME280;23841;48.524;1.342;2023-11-21T11:08:06;99442.44;;;13.35;70.79
38033;BME280;23841;48.524;1.342;2023-11-21T11:10:35;99432.69;;;13.32;70.68
38033;BME280;23841;48.524;1.342;2023-11-21T11:13:01;99434.50;;;13.32;70.78
38033;BME280;23841;48.524;1.342;2023-11-21T11:15:28;99434.53;;;13.30;71.14
38033;BME280;23841;48.524;1.342;2023-11-21T11:17:54;99441.66;;;13.30;71.33
38033;BME280;23841;48.524;1.342;2023-11-21T11:20:24;99444.31;;;13.30;71.43
38033;BME280;23841;48.524;1.342;2023-11-21T11:23:07;99438.19;;;13.28;71.83
38033;BME280;23841;48.524;1.342;2023-11-21T11:28:08;99449.66;;;13.30;71.67
38033;BME280;23841;48.524;1.342;2023-11-21T11:30:41;99439.88;;;13.30;71.44
38033;BME280;23841;48.524;1.342;2023-11-21T11:36:17;99429.34;;;13.26;71.76
38033;BME280;23841;48.524;1.342;2023-11-21T11:38:47;99431.09;;;13.27;71.81
38033;BME280;23841;48.524;1.342;2023-11-21T11:41:26;99433.75;;;13.27;71.87
38033;BME280;23841;48.524;1.342;2023-11-21T11:43:54;99439.09;;;13.27;71.92
38033;BME280;23841;48.524;1.342;2023-11-21T11:46:19;99439.16;;;13.25;71.78
38033;BME280;23841;48.524;1.342;2023-11-21T11:48:48;99433.84;;;13.24;71.91
38033;BME280;23841;48.524;1.342;2023-11-21T11:51:28;99441.91;;;13.22;72.00
38033;BME280;23841;48.524;1.342;2023-11-21T11:53:54;99432.31;;;13.15;72.34
38033;BME280;23841;48.524;1.342;2023-11-21T11:56:27;99430.53;;;13.15;72.32
38033;BME280;23841;48.524;1.342;2023-11-21T11:58:55;99431.41;;;13.16;72.13
38033;BME280;23841;48.524;1.342;2023-11-21T12:01:22;99433.13;;;13.19;72.12
38033;BME280;23841;48.524;1.342;2023-11-21T12:06:57;99448.31;;;13.15;72.41
38033;BME280;23841;48.524;1.342;2023-11-21T12:09:25;99443.84;;;13.17;72.27
38033;BME280;23841;48.524;1.342;2023-11-21T12:11:52;99435.78;;;13.19;72.59
38033;BME280;23841;48.524;1.342;2023-11-21T12:14:20;99431.31;;;13.19;72.59
38033;BME280;23841;48.524;1.342;2023-11-21T12:16:45;99441.97;;;13.19;72.41
38033;BME280;23841;48.524;1.342;2023-11-21T12:19:14;99445.50;;;13.21;72.53
38033;BME280;23841;48.524;1.342;2023-11-21T12:21:40;99445.59;;;13.18;72.81
38033;BME280;23841;48.524;1.342;2023-11-21T12:24:09;99444.78;;;13.14;72.83
38033;BME280;23841;48.524;1.342;2023-11-21T12:26:35;99451.00;;;13.15;72.90
38033;BME280;23841;48.524;1.342;2023-11-21T12:29:02;99448.31;;;13.15;72.96
38033;BME280;23841;48.524;1.342;2023-11-21T12:31:29;99447.41;;;13.16;73.09
38033;BME280;23841;48.524;1.342;2023-11-21T12:33:55;99443.84;;;13.17;72.91
38033;BME280;23841;48.524;1.342;2023-11-21T12:36:21;99447.41;;;13.16;73.20
38033;BME280;23841;48.524;1.342;2023-11-21T12:38:47;99448.31;;;13.17;73.15
38033;BME280;23841;48.524;1.342;2023-11-21T12:41:12;99449.22;;;13.15;73.30
38033;BME280;23841;48.524;1.342;2023-11-21T12:43:38;99451.84;;;13.17;72.94
38033;BME280;23841;48.524;1.342;2023-11-21T12:46:11;99450.94;;;13.18;73.20
38033;BME280;23841;48.524;1.342;2023-11-21T12:48:41;99449.16;;;13.17;73.44
38033;BME280;23841;48.524;1.342;2023-11-21T12:51:10;99450.13;;;13.14;73.78
38033;BME280;23841;48.524;1.342;2023-11-21T12:53:44;99458.97;;;13.17;73.58
38033;BME280;23841;48.524;1.342;2023-11-21T12:56:12;99458.09;;;13.16;73.73
38033;BME280;23841;48.524;1.342;2023-11-21T12:58:39;99462.56;;;13.15;73.66
38033;BME280;23841;48.524;1.342;2023-11-21T13:01:06;99475.84;;;13.17;73.89
38033;BME280;23841;48.524;1.342;2023-11-21T13:03:37;99464.31;;;13.15;74.22
38033;BME280;23841;48.524;1.342;2023-11-21T13:06:04;99468.81;;;13.14;74.23
38033;BME280;23841;48.524;1.342;2023-11-21T13:08:30;99480.44;;;13.12;74.45